createdAt,value
2023-04-08T00:02:07.177Z,7.30
2023-04-08T00:04:34.306Z,7.34
2023-04-08T00:07:01.347Z,7.30
2023-04-08T00:09:28.568Z,7.37
2023-04-08T00:11:57.268Z,7.28
2023-04-08T00:14:24.325Z,7.24
2023-04-08T00:16:51.518Z,7.28
2023-04-08T00:19:18.746Z,7.30
2023-04-08T00:21:45.742Z,7.42
2023-04-08T00:24:13.242Z,7.38
2023-04-08T00:26:40.663Z,7.33
2023-04-08T00:29:07.641Z,7.20
2023-04-08T00:31:34.614Z,7.27
2023-04-08T00:34:01.913Z,7.31
2023-04-08T00:36:28.742Z,7.35
2023-04-08T00:38:56.751Z,7.36
2023-04-08T00:41:23.947Z,7.33
2023-04-08T00:43:52.092Z,7.22
2023-04-08T00:46:19.363Z,7.22
2023-04-08T00:48:46.561Z,7.35
2023-04-08T00:51:13.995Z,7.40
2023-04-08T00:53:40.975Z,7.37
2023-04-08T00:56:07.918Z,7.34
2023-04-08T00:58:35.035Z,7.24
2023-04-08T01:01:15.166Z,7.30
2023-04-08T01:04:05.377Z,7.27
2023-04-08T01:06:47.097Z,7.37
2023-04-08T01:09:14.128Z,7.40
2023-04-08T01:11:44.647Z,7.32
2023-04-08T01:14:16.519Z,7.46
2023-04-08T01:16:46.239Z,7.43
2023-04-08T01:19:23.005Z,7.37
2023-04-08T01:21:51.004Z,7.38
2023-04-08T01:24:28.345Z,7.36
2023-04-08T01:26:58.414Z,7.28
2023-04-08T01:29:26.556Z,7.30
2023-04-08T01:31:55.541Z,7.25
2023-04-08T01:34:23.621Z,7.15
2023-04-08T01:36:51.951Z,7.21
2023-04-08T01:39:21.587Z,7.27
2023-04-08T01:41:49.712Z,7.23
2023-04-08T01:44:18.871Z,7.23
2023-04-08T01:46:47.458Z,7.29
2023-04-08T01:49:15.963Z,7.30
2023-04-08T01:51:44.854Z,7.24
2023-04-08T01:54:11.877Z,7.20
2023-04-08T01:56:42.508Z,7.15
2023-04-08T01:59:13.747Z,7.24
2023-04-08T02:01:43.948Z,7.12
2023-04-08T02:04:11.209Z,7.08
2023-04-08T02:06:38.922Z,7.20
2023-04-08T02:09:05.974Z,7.21
2023-04-08T02:11:33.107Z,7.24
2023-04-08T02:14:00.472Z,7.32
2023-04-08T02:16:43.206Z,7.28
2023-04-08T02:19:21.930Z,7.23
2023-04-08T02:21:57.730Z,7.09
2023-04-08T02:24:27.966Z,7.09
2023-04-08T02:26:57.181Z,7.02
2023-04-08T02:29:25.528Z,7.00
2023-04-08T02:31:55.422Z,7.02
2023-04-08T02:34:23.527Z,6.98
2023-04-08T02:36:51.345Z,6.92
2023-04-08T02:39:18.541Z,6.95
2023-04-08T02:41:48.457Z,6.82
2023-04-08T02:44:15.568Z,6.85
2023-04-08T02:46:42.682Z,6.83
2023-04-08T02:49:09.694Z,6.80
2023-04-08T02:51:36.924Z,6.98
2023-04-08T02:54:04.102Z,7.01
2023-04-08T02:56:31.053Z,7.11
2023-04-08T02:58:58.294Z,7.06
2023-04-08T03:01:25.303Z,6.97
2023-04-08T03:03:52.921Z,6.98
2023-04-08T03:06:20.140Z,6.93
2023-04-08T03:08:47.431Z,6.86
2023-04-08T03:11:14.519Z,6.85
2023-04-08T03:13:41.680Z,6.85
2023-04-08T03:16:08.532Z,6.84
2023-04-08T03:18:35.541Z,6.99
2023-04-08T03:21:03.415Z,6.96
2023-04-08T03:23:30.368Z,6.95
2023-04-08T03:25:57.379Z,6.88
2023-04-08T03:28:24.463Z,6.96
2023-04-08T03:30:51.671Z,6.95
2023-04-08T03:33:18.675Z,6.96
2023-04-08T03:35:45.882Z,6.87
2023-04-08T03:38:12.980Z,6.90
2023-04-08T03:40:39.891Z,6.89
2023-04-08T03:43:08.990Z,6.89
2023-04-08T03:45:35.981Z,6.87
2023-04-08T03:48:02.986Z,6.79
2023-04-08T03:50:30.302Z,6.85
2023-04-08T03:52:57.325Z,6.89
2023-04-08T03:55:24.367Z,6.95
2023-04-08T03:57:51.602Z,7.08
2023-04-08T04:00:18.542Z,7.00
2023-04-08T04:02:46.000Z,6.90
2023-04-08T04:05:12.854Z,6.97
2023-04-08T04:07:39.879Z,6.92
2023-04-08T04:10:07.301Z,6.90
2023-04-08T04:12:34.483Z,6.98
2023-04-08T04:15:01.359Z,6.99
2023-04-08T04:17:28.201Z,7.00
2023-04-08T04:19:55.758Z,6.96
2023-04-08T04:22:22.709Z,6.96
2023-04-08T04:24:50.040Z,7.03
2023-04-08T04:27:18.381Z,7.12
2023-04-08T04:29:45.438Z,7.17
2023-04-08T04:32:12.359Z,7.19
2023-04-08T04:34:39.472Z,7.10
2023-04-08T04:37:06.443Z,7.00
2023-04-08T04:39:33.612Z,7.11
2023-04-08T04:42:00.502Z,7.12
2023-04-08T04:44:27.537Z,7.23
2023-04-08T04:46:54.613Z,7.32
2023-04-08T04:49:21.573Z,7.35
2023-04-08T04:51:49.281Z,7.46
2023-04-08T04:54:16.414Z,7.53
2023-04-08T04:56:43.350Z,7.51
2023-04-08T04:59:10.711Z,7.45
2023-04-08T05:01:37.780Z,7.52
2023-04-08T05:04:04.765Z,7.50
2023-04-08T05:06:31.995Z,7.53
2023-04-08T05:08:58.982Z,7.61
2023-04-08T05:11:28.001Z,7.64
2023-04-08T05:13:54.881Z,7.64
2023-04-08T05:16:21.783Z,7.54
2023-04-08T05:18:49.009Z,7.70
2023-04-08T05:21:16.527Z,7.53
2023-04-08T05:23:43.276Z,7.59
2023-04-08T05:26:10.625Z,7.68
2023-04-08T05:28:37.517Z,7.72
2023-04-08T05:31:04.651Z,7.80
2023-04-08T05:33:31.517Z,7.83
2023-04-08T05:35:58.495Z,7.90
2023-04-08T05:38:25.861Z,8.02
2023-04-08T05:40:52.928Z,8.01
2023-04-08T05:43:19.917Z,7.98
2023-04-08T05:45:46.816Z,8.06
2023-04-08T05:48:13.768Z,8.21
2023-04-08T05:50:41.000Z,8.30
2023-04-08T05:53:07.813Z,8.38
2023-04-08T05:55:35.037Z,8.48
2023-04-08T05:58:01.964Z,8.53
2023-04-08T06:00:29.126Z,8.59
2023-04-08T06:02:56.187Z,8.70
2023-04-08T06:05:23.528Z,8.87
2023-04-08T06:07:50.588Z,9.02
2023-04-08T06:10:18.435Z,9.08
2023-04-08T06:12:45.684Z,9.21
2023-04-08T06:15:12.770Z,9.35
2023-04-08T06:17:40.007Z,9.27
2023-04-08T06:20:07.386Z,9.39
2023-04-08T06:22:34.399Z,9.66
2023-04-08T06:25:01.749Z,9.70
2023-04-08T06:27:28.694Z,9.80
2023-04-08T06:29:55.897Z,9.82
2023-04-08T06:32:23.048Z,9.76
2023-04-08T06:34:50.000Z,10.14
2023-04-08T06:37:17.111Z,10.28
2023-04-08T06:39:44.410Z,10.35
2023-04-08T06:42:11.517Z,10.54
2023-04-08T06:44:52.586Z,10.73
2023-04-08T06:47:19.352Z,10.77
2023-04-08T06:49:46.872Z,10.96
2023-04-08T06:52:14.847Z,11.12
2023-04-08T06:54:42.413Z,11.41
2023-04-08T06:57:09.488Z,11.28
2023-04-08T06:59:36.513Z,11.46
2023-04-08T07:02:03.912Z,11.66
2023-04-08T07:04:31.665Z,11.94
2023-04-08T07:06:58.872Z,12.10
2023-04-08T07:09:25.958Z,12.22
2023-04-08T07:11:53.095Z,12.32
2023-04-08T07:14:20.587Z,12.16
2023-04-08T07:16:47.711Z,12.45
2023-04-08T07:19:14.757Z,12.63
2023-04-08T07:21:41.951Z,12.73
2023-04-08T07:24:08.852Z,12.63
2023-04-08T07:26:36.147Z,12.62
2023-04-08T07:29:03.016Z,12.87
2023-04-08T07:31:29.859Z,12.78
2023-04-08T07:33:57.424Z,12.74
2023-04-08T07:36:24.274Z,12.78
2023-04-08T07:38:51.834Z,12.89
2023-04-08T07:41:19.148Z,12.90
2023-04-08T07:43:46.204Z,13.03
2023-04-08T07:46:13.354Z,13.02
2023-04-08T07:48:40.332Z,13.06
2023-04-08T07:51:11.148Z,13.20
2023-04-08T07:53:40.337Z,13.36
2023-04-08T07:56:16.325Z,13.28
2023-04-08T07:58:43.650Z,13.08
2023-04-08T08:01:22.434Z,13.25
2023-04-08T08:03:53.991Z,13.41
2023-04-08T08:06:22.132Z,13.38
2023-04-08T08:08:49.120Z,13.15
2023-04-08T08:11:16.322Z,13.17
2023-04-08T08:13:43.554Z,13.29
2023-04-08T08:16:12.491Z,13.27
2023-04-08T08:18:41.047Z,13.32
2023-04-08T08:21:08.963Z,13.54
2023-04-08T08:23:36.561Z,13.68
2023-04-08T08:26:11.424Z,13.81
2023-04-08T08:28:39.834Z,13.94
2023-04-08T08:31:07.136Z,14.04
2023-04-08T08:33:34.507Z,14.10
2023-04-08T08:36:01.866Z,14.22
2023-04-08T08:38:28.954Z,14.23
2023-04-08T08:40:57.053Z,14.19
2023-04-08T08:43:25.505Z,14.32
2023-04-08T08:45:53.095Z,14.52
2023-04-08T08:48:20.623Z,14.61
2023-04-08T08:50:48.120Z,14.50
2023-04-08T08:53:15.825Z,14.48
2023-04-08T08:56:13.548Z,14.62
2023-04-08T08:58:31.205Z,14.82
2023-04-08T09:00:58.088Z,14.86
2023-04-08T09:03:28.246Z,14.82
2023-04-08T09:05:59.585Z,14.89
2023-04-08T09:08:33.444Z,14.98
2023-04-08T09:11:17.305Z,15.24
2023-04-08T09:13:46.117Z,15.28
2023-04-08T09:16:18.270Z,15.31
2023-04-08T09:18:47.504Z,15.44
2023-04-08T09:21:17.174Z,15.51
2023-04-08T09:23:49.199Z,15.76
2023-04-08T09:26:23.109Z,15.84
2023-04-08T09:29:24.435Z,15.89
2023-04-08T09:32:00.431Z,15.82
2023-04-08T09:34:29.263Z,15.99
2023-04-08T09:36:56.983Z,15.56
2023-04-08T09:39:24.581Z,15.71
2023-04-08T09:41:52.983Z,15.54
2023-04-08T09:44:21.968Z,15.25
2023-04-08T09:46:52.732Z,15.28
2023-04-08T09:49:26.188Z,15.35
2023-04-08T09:52:11.729Z,15.10
2023-04-08T09:54:50.210Z,15.39
2023-04-08T09:57:22.742Z,15.68
2023-04-08T09:59:57.869Z,15.68
2023-04-08T10:02:31.365Z,15.73
2023-04-08T10:05:05.611Z,15.70
2023-04-08T10:07:36.226Z,15.56
2023-04-08T10:10:03.999Z,15.53
2023-04-08T10:12:31.064Z,15.39
2023-04-08T10:15:26.482Z,15.32
2023-04-08T10:17:54.702Z,15.28
2023-04-08T10:20:37.817Z,15.28
2023-04-08T10:23:11.628Z,15.09
2023-04-08T10:25:39.358Z,15.02
2023-04-08T10:28:12.457Z,14.85
2023-04-08T10:30:48.492Z,14.88
2023-04-08T10:33:18.748Z,14.75
2023-04-08T10:36:02.325Z,14.65
2023-04-08T10:38:29.130Z,14.58
2023-04-08T10:40:56.192Z,14.31
2023-04-08T10:43:24.412Z,14.23
2023-04-08T10:46:37.827Z,14.12
2023-04-08T10:49:04.797Z,14.05
2023-04-08T10:51:33.911Z,14.10
2023-04-08T10:54:27.517Z,14.06
2023-04-08T10:56:55.063Z,14.04
2023-04-08T10:59:33.279Z,14.15
2023-04-08T11:02:01.533Z,14.11
2023-04-08T11:04:29.043Z,14.33
2023-04-08T11:06:56.460Z,14.27
2023-04-08T11:09:23.235Z,14.21
2023-04-08T11:11:52.408Z,14.41
2023-04-08T11:14:22.030Z,14.57
2023-04-08T11:16:49.063Z,14.56
2023-04-08T11:19:16.471Z,14.53
2023-04-08T11:21:43.667Z,14.50
2023-04-08T11:24:14.679Z,14.50
2023-04-08T11:26:42.762Z,14.44
2023-04-08T11:29:14.261Z,14.39
2023-04-08T11:31:41.946Z,14.26
2023-04-08T11:34:08.795Z,14.22
2023-04-08T11:36:36.930Z,14.21
2023-04-08T11:39:08.499Z,14.26
2023-04-08T11:41:40.785Z,14.44
2023-04-08T11:44:08.701Z,14.61
2023-04-08T11:46:36.306Z,14.74
2023-04-08T11:49:04.433Z,14.78
2023-04-08T11:51:31.677Z,14.92
2023-04-08T11:53:58.890Z,15.07
2023-04-08T11:56:26.648Z,15.17
2023-04-08T11:58:56.806Z,15.27
2023-04-08T12:01:40.790Z,15.38
2023-04-08T12:04:10.478Z,15.43
2023-04-08T12:06:37.872Z,15.47
2023-04-08T12:09:05.145Z,15.42
2023-04-08T12:11:32.133Z,15.24
2023-04-08T12:13:59.070Z,15.26
2023-04-08T12:16:26.304Z,15.22
2023-04-08T12:18:53.480Z,15.27
2023-04-08T12:21:20.533Z,15.08
2023-04-08T12:23:47.468Z,14.96
2023-04-08T12:26:14.850Z,14.91
2023-04-08T12:28:41.817Z,14.88
2023-04-08T12:31:08.897Z,14.77
2023-04-08T12:33:35.978Z,14.72
2023-04-08T12:36:03.409Z,14.58
2023-04-08T12:38:30.482Z,14.49
2023-04-08T12:40:57.363Z,14.42
2023-04-08T12:43:24.777Z,14.43
2023-04-08T12:45:52.005Z,14.45
2023-04-08T12:48:19.316Z,14.34
2023-04-08T12:50:46.839Z,14.19
2023-04-08T12:53:13.932Z,14.08
2023-04-08T12:55:42.678Z,14.03
2023-04-08T12:58:11.411Z,13.99
2023-04-08T13:00:39.165Z,13.95
2023-04-08T13:03:06.590Z,13.97
2023-04-08T13:05:43.295Z,13.96
2023-04-08T13:08:14.458Z,14.02
2023-04-08T13:10:42.541Z,13.89
2023-04-08T13:13:09.605Z,13.71
2023-04-08T13:15:37.139Z,13.66
2023-04-08T13:18:04.904Z,13.65
2023-04-08T13:20:32.175Z,13.53
2023-04-08T13:23:01.189Z,13.46
2023-04-08T13:25:28.574Z,13.37
2023-04-08T13:27:55.633Z,13.28
2023-04-08T13:30:22.647Z,13.21
2023-04-08T13:32:49.844Z,13.08
2023-04-08T13:35:17.052Z,13.05
2023-04-08T13:37:44.548Z,13.09
2023-04-08T13:40:12.618Z,13.08
2023-04-08T13:42:40.176Z,13.03
2023-04-08T13:45:08.481Z,13.14
2023-04-08T13:47:37.937Z,13.17
2023-04-08T13:50:08.155Z,13.18
2023-04-08T13:52:36.228Z,13.28
2023-04-08T13:55:03.672Z,13.32
2023-04-08T13:57:31.562Z,13.40
2023-04-08T13:59:58.957Z,13.47
2023-04-08T14:02:26.947Z,13.38
2023-04-08T14:04:54.787Z,13.46
2023-04-08T14:07:22.346Z,13.33
2023-04-08T14:09:49.689Z,13.38
2023-04-08T14:12:17.324Z,13.34
2023-04-08T14:14:45.981Z,13.29
2023-04-08T14:17:14.039Z,13.23
2023-04-08T14:19:42.453Z,13.30
2023-04-08T14:22:12.979Z,13.25
2023-04-08T14:24:40.900Z,13.44
2023-04-08T14:27:08.375Z,13.43
2023-04-08T14:29:36.078Z,13.47
2023-04-08T14:32:03.559Z,13.49
2023-04-08T14:34:30.962Z,13.61
2023-04-08T14:36:58.328Z,13.54
2023-04-08T14:39:25.995Z,13.74
2023-04-08T14:41:53.471Z,13.78
2023-04-08T14:44:21.030Z,13.82
2023-04-08T14:46:48.612Z,13.85
2023-04-08T14:49:16.245Z,13.80
2023-04-08T14:51:44.041Z,13.69
2023-04-08T14:54:14.308Z,13.72
2023-04-08T14:56:41.972Z,13.62
2023-04-08T14:59:09.291Z,13.61
2023-04-08T15:01:37.158Z,13.63
2023-04-08T15:04:05.376Z,13.66
2023-04-08T15:06:33.109Z,13.60
2023-04-08T15:09:18.107Z,13.60
2023-04-08T15:11:46.104Z,13.47
2023-04-08T15:14:13.965Z,13.42
2023-04-08T15:16:42.383Z,13.42
2023-04-08T15:19:10.230Z,13.36
2023-04-08T15:21:37.812Z,13.38
2023-04-08T15:24:06.337Z,13.38
2023-04-08T15:26:33.909Z,13.35
2023-04-08T15:29:01.686Z,13.27
2023-04-08T15:31:28.941Z,13.18
2023-04-08T15:33:57.080Z,13.17
2023-04-08T15:36:24.648Z,13.23
2023-04-08T15:38:52.846Z,13.25
2023-04-08T15:41:23.382Z,13.22
2023-04-08T15:43:50.616Z,13.22
2023-04-08T15:46:20.987Z,12.97
2023-04-08T15:48:49.131Z,13.00
2023-04-08T15:51:17.069Z,12.98
2023-04-08T15:54:39.968Z,12.95
2023-04-08T15:58:13.557Z,12.79
2023-04-08T16:00:41.242Z,12.78
2023-04-08T16:03:12.132Z,12.82
2023-04-08T16:05:41.610Z,12.68
2023-04-08T16:08:08.879Z,12.60
2023-04-08T16:10:36.361Z,12.49
2023-04-08T16:13:03.470Z,12.42
2023-04-08T16:15:30.545Z,12.31
2023-04-08T16:17:57.918Z,12.27
2023-04-08T16:20:26.380Z,12.19
2023-04-08T16:22:53.861Z,12.14
2023-04-08T16:25:21.834Z,12.04
2023-04-08T16:27:52.260Z,11.80
2023-04-08T16:30:20.531Z,11.88
2023-04-08T16:32:50.960Z,11.86
2023-04-08T16:35:19.466Z,11.80
2023-04-08T16:37:47.832Z,11.71
2023-04-08T16:40:16.683Z,11.63
2023-04-08T16:42:44.659Z,11.52
2023-04-08T16:45:15.463Z,11.47
2023-04-08T16:47:43.642Z,11.44
2023-04-08T16:50:11.916Z,11.31
2023-04-08T16:52:40.940Z,11.36
2023-04-08T16:55:09.897Z,11.28
2023-04-08T16:57:37.917Z,11.29
2023-04-08T17:00:09.106Z,11.18
2023-04-08T17:02:37.194Z,11.23
2023-04-08T17:05:05.514Z,11.14
2023-04-08T17:07:33.385Z,11.10
2023-04-08T17:10:01.641Z,11.26
2023-04-08T17:12:28.745Z,11.16
2023-04-08T17:14:56.870Z,11.15
2023-04-08T17:17:25.211Z,11.10
2023-04-08T17:19:55.948Z,11.05
2023-04-08T17:22:23.880Z,10.99
2023-04-08T17:24:51.707Z,11.02
2023-04-08T17:27:20.126Z,11.05
2023-04-08T17:29:47.972Z,10.99
2023-04-08T17:32:16.500Z,10.96
2023-04-08T17:34:44.511Z,10.93
2023-04-08T17:37:12.584Z,10.88
2023-04-08T17:39:41.455Z,10.83
2023-04-08T17:42:09.526Z,10.91
2023-04-08T17:44:38.477Z,10.85
2023-04-08T17:47:06.860Z,10.82
2023-04-08T17:49:35.546Z,10.54
2023-04-08T17:52:03.875Z,10.73
2023-04-08T17:54:35.278Z,10.71
2023-04-08T17:57:03.802Z,10.69
2023-04-08T17:59:31.247Z,10.52
2023-04-08T18:01:59.241Z,10.64
2023-04-08T18:04:27.241Z,10.56
2023-04-08T18:06:55.156Z,10.39
2023-04-08T18:09:23.082Z,10.41
2023-04-08T18:11:50.456Z,10.29
2023-04-08T18:14:18.219Z,10.29
2023-04-08T18:16:46.330Z,10.27
2023-04-08T18:19:14.261Z,10.18
2023-04-08T18:21:42.406Z,10.15
2023-04-08T18:24:10.304Z,10.19
2023-04-08T18:26:37.648Z,10.15
2023-04-08T18:29:05.323Z,10.13
2023-04-08T18:31:33.625Z,10.15
2023-04-08T18:34:01.540Z,10.11
2023-04-08T18:36:29.364Z,10.12
2023-04-08T18:38:59.696Z,10.03
2023-04-08T18:41:28.832Z,10.13
2023-04-08T18:43:56.862Z,10.09
2023-04-08T18:46:25.401Z,9.99
2023-04-08T18:48:55.734Z,10.11
2023-04-08T18:51:24.352Z,10.04
2023-04-08T18:53:53.684Z,10.04
2023-04-08T18:56:22.162Z,10.09
2023-04-08T18:58:50.981Z,10.09
2023-04-08T19:01:19.196Z,10.10
2023-04-08T19:03:47.483Z,10.04
2023-04-08T19:06:18.162Z,10.07
2023-04-08T19:08:48.132Z,10.15
2023-04-08T19:11:16.429Z,10.07
2023-04-08T19:13:44.840Z,10.06
2023-04-08T19:16:14.365Z,10.03
2023-04-08T19:18:42.252Z,10.04
2023-04-08T19:21:10.355Z,10.05
2023-04-08T19:23:38.249Z,10.08
2023-04-08T19:26:07.545Z,10.11
2023-04-08T19:28:36.463Z,10.14
2023-04-08T19:31:06.691Z,10.13
2023-04-08T19:33:35.855Z,9.88
2023-04-08T19:36:03.873Z,10.04
2023-04-08T19:38:32.190Z,10.12
2023-04-08T19:41:00.102Z,9.89
2023-04-08T19:43:28.346Z,9.93
2023-04-08T19:45:56.523Z,9.83
2023-04-08T19:48:25.526Z,9.95
2023-04-08T19:50:53.328Z,9.84
2023-04-08T19:53:21.760Z,9.73
2023-04-08T19:55:49.737Z,9.75
2023-04-08T19:58:17.868Z,9.82
2023-04-08T20:00:45.838Z,9.70
2023-04-08T20:03:14.717Z,9.75
2023-04-08T20:05:46.978Z,9.77
2023-04-08T20:08:14.975Z,9.82
2023-04-08T20:10:43.454Z,9.67
2023-04-08T20:13:11.464Z,9.73
2023-04-08T20:15:39.791Z,9.75
2023-04-08T20:18:07.832Z,9.69
2023-04-08T20:20:35.863Z,9.64
2023-04-08T20:23:03.717Z,9.60
2023-04-08T20:25:32.020Z,9.63
2023-04-08T20:27:59.845Z,9.62
2023-04-08T20:30:28.774Z,9.67
2023-04-08T20:32:56.883Z,9.46
2023-04-08T20:35:30.717Z,9.52
2023-04-08T20:37:58.603Z,9.40
2023-04-08T20:40:25.820Z,9.34
2023-04-08T20:42:53.632Z,9.30
2023-04-08T20:45:21.689Z,9.26
2023-04-08T20:47:50.391Z,9.23
2023-04-08T20:50:18.683Z,9.21
2023-04-08T20:52:48.486Z,9.17
2023-04-08T20:55:16.491Z,9.12
2023-04-08T20:57:45.306Z,9.08
2023-04-08T21:00:14.570Z,8.98
2023-04-08T21:02:53.308Z,8.97
2023-04-08T21:05:30.748Z,8.81
2023-04-08T21:08:02.868Z,8.85
2023-04-08T21:10:35.329Z,8.75
2023-04-08T21:15:48.649Z,8.65
2023-04-08T21:18:19.171Z,8.56
2023-04-08T21:20:51.306Z,8.44
2023-04-08T21:23:23.243Z,8.49
2023-04-08T21:25:55.692Z,8.46
2023-04-08T21:28:27.884Z,8.43
2023-04-08T21:31:05.222Z,8.34
2023-04-08T21:33:37.629Z,8.29
2023-04-08T21:38:57.179Z,8.20
2023-04-08T21:41:35.251Z,8.18
2023-04-08T21:44:08.943Z,8.06
2023-04-08T21:46:37.992Z,8.06
2023-04-08T21:49:07.755Z,8.01
2023-04-08T21:51:40.556Z,7.97
2023-04-08T21:54:16.323Z,7.99
2023-04-08T21:56:43.885Z,7.97
2023-04-08T21:59:14.048Z,8.03
2023-04-08T22:01:41.562Z,8.00
2023-04-08T22:04:19.735Z,8.03
2023-04-08T22:06:49.587Z,8.05
2023-04-08T22:09:17.093Z,8.03
2023-04-08T22:11:44.207Z,7.89
2023-04-08T22:14:11.021Z,7.95
2023-04-08T22:16:38.399Z,7.94
2023-04-08T22:19:05.647Z,7.94
2023-04-08T22:21:33.073Z,7.87
2023-04-08T22:24:00.018Z,7.89
2023-04-08T22:26:27.710Z,7.91
2023-04-08T22:28:54.851Z,7.97
2023-04-08T22:31:22.262Z,8.03
2023-04-08T22:33:49.321Z,8.05
2023-04-08T22:36:16.995Z,8.07
2023-04-08T22:38:44.108Z,8.20
2023-04-08T22:41:18.143Z,8.17
2023-04-08T22:43:45.685Z,8.32
2023-04-08T22:46:14.719Z,8.39
2023-04-08T22:48:41.844Z,8.29
2023-04-08T22:51:09.384Z,8.27
2023-04-08T22:53:36.993Z,8.23
2023-04-08T22:56:04.587Z,8.20
2023-04-08T22:58:31.747Z,8.11
2023-04-08T23:00:58.800Z,8.14
2023-04-08T23:03:25.782Z,8.06
2023-04-08T23:05:52.752Z,8.10
2023-04-08T23:08:19.912Z,7.97
2023-04-08T23:10:46.890Z,7.91
2023-04-08T23:13:14.523Z,7.83
2023-04-08T23:15:41.715Z,7.74
2023-04-08T23:18:08.676Z,7.57
2023-04-08T23:20:35.969Z,7.48
2023-04-08T23:23:03.722Z,7.54
2023-04-08T23:25:30.829Z,7.37
2023-04-08T23:27:57.752Z,7.37
2023-04-08T23:30:24.767Z,7.36
2023-04-08T23:32:51.886Z,7.28
2023-04-08T23:35:20.291Z,7.20
2023-04-08T23:37:47.378Z,7.15
2023-04-08T23:40:14.320Z,7.12
2023-04-08T23:42:41.255Z,7.11
2023-04-08T23:45:08.634Z,6.95
2023-04-08T23:47:35.878Z,6.94
2023-04-08T23:50:02.988Z,6.80
2023-04-08T23:52:29.952Z,6.79
2023-04-08T23:54:57.039Z,6.68
2023-04-08T23:57:24.137Z,6.67
2023-04-08T23:59:51.282Z,6.56
